Marella Discovery — 9HA4324 — position and weather

sailwx.info

Track history (hours):
 
Tides and Currents Weather Stations Pressure Air Temp Water Temp Dewpoint Dewpoint Depression Visibility Wind Speed Wind Dir Waves Ship Positions

Marella Discovery

Last reported at 2018-Jun-23 21:34 UTC. Time now 2018-Jun-24 05:08 UTC.
Position N 55°14' W 000°42'.

Length 264 m; draft 8 m.

Type: Passenger vessel. MMSI: 249639000.

Date/timePositionNaut miles runAvg speedWind from/ knotsBaromVisibWave heightAir tempDewpointWater temp
2018-Jun-23 21:34N 55°14' W 000°42'614.6
2018-Jun-23 21:11N 55°12' W 000°50'314.5
2018-Jun-23 21:00N 55°10' W 000°54'714.6
2018-Jun-23 20:30N 55°06' W 001°04'714.7
2018-Jun-23 20:01N 55°03' W 001°16'611.2
2018-Jun-23 19:30N 55°01' W 001°25'2 4.2
2018-Jun-23 19:00N 54°59' W 001°28'1 1.3
2018-Jun-23 18:29N 54°60' W 001°27'0 0.0
2018-Jun-23 17:59N 54°60' W 001°27'0 0.0
2018-Jun-23 17:29N 54°60' W 001°27'0 0.0
2018-Jun-23 16:59N 54°60' W 001°27'0 0.0
2018-Jun-23 16:29N 54°60' W 001°27'0 0.0
2018-Jun-23 15:59N 54°60' W 001°27'0 0.0
2018-Jun-23 15:29N 54°60' W 001°27'0 0.0
2018-Jun-23 14:59N 54°60' W 001°27'0 0.0
2018-Jun-23 14:29N 54°60' W 001°27'0 0.0
2018-Jun-23 13:59N 54°60' W 001°27'0 0.0
2018-Jun-23 13:29N 54°60' W 001°27'0 0.0
2018-Jun-23 12:59N 54°60' W 001°27'0 0.0
2018-Jun-23 12:29N 54°60' W 001°27'0 0.0
2018-Jun-23 11:59N 54°60' W 001°27'0 0.0
2018-Jun-23 11:29N 54°60' W 001°27'0 0.0
2018-Jun-23 10:59N 54°60' W 001°27'0 0.0
2018-Jun-23 10:29N 54°60' W 001°27'0 0.0
2018-Jun-23 09:59N 54°60' W 001°27'0 0.0
2018-Jun-23 09:29N 54°60' W 001°27'0 0.0
2018-Jun-23 08:59N 54°60' W 001°27'0 0.0
2018-Jun-23 08:29N 54°60' W 001°27'0 0.0
2018-Jun-23 07:59N 54°60' W 001°27'0 0.0
2018-Jun-23 07:26N 54°60' W 001°27'0 0.0
2018-Jun-23 06:59N 54°60' W 001°27'0 0.0
2018-Jun-23 06:29N 54°60' W 001°27'0 0.0
2018-Jun-23 05:59N 54°60' W 001°27'0 0.0
2018-Jun-23 05:26N 54°60' W 001°27'0 0.0
2018-Jun-23 04:56N 54°60' W 001°27'1 1.8
2018-Jun-23 04:30N 55°00' W 001°26'4 8.8
2018-Jun-23 04:00N 55°03' W 001°20'510.0
2018-Jun-23 03:30N 55°07' W 001°15'511.0
2018-Jun-23 03:00N 55°11' W 001°10'611.4
2018-Jun-23 02:30N 55°16' W 001°03'611.5
2018-Jun-23 02:00N 55°20' W 000°57'4211.2
2018-Jun-22 22:13N 55°50' W 000°03'411.4
2018-Jun-22 21:50N 55°51' E 000°05'23810.0
2018-Jun-21 22:03N 58°56' E 004°43'212.4
2018-Jun-21 21:53N 58°57' E 004°47'512.3
2018-Jun-21 21:29N 58°59' E 004°55'612.2
2018-Jun-21 21:00N 59°02' E 005°05'713.1
2018-Jun-21 20:31N 59°05' E 005°17'5 9.9
2018-Jun-21 20:00N 59°08' E 005°09'917.9
2018-Jun-21 19:30N 59°17' E 005°07'918.1
2018-Jun-21 19:00N 59°26' E 005°09'3 6.0
2018-Jun-21 18:28N 59°25' E 005°15'0 0.0
2018-Jun-21 17:58N 59°25' E 005°15'0 0.0
2018-Jun-21 17:28N 59°25' E 005°15'0 0.0
2018-Jun-21 16:58N 59°25' E 005°15'0 0.0
2018-Jun-21 16:28N 59°25' E 005°15'0 0.0
2018-Jun-21 15:58N 59°25' E 005°15'0 0.0
2018-Jun-21 15:28N 59°25' E 005°15'0 0.0
2018-Jun-21 14:58N 59°25' E 005°15'0 0.0
2018-Jun-21 14:28N 59°25' E 005°15'0 0.0
2018-Jun-21 13:58N 59°25' E 005°15'0 0.0
2018-Jun-21 13:28N 59°25' E 005°15'0 0.0
2018-Jun-21 12:58N 59°25' E 005°15'0 0.0
2018-Jun-21 12:28N 59°25' E 005°15'0 0.0
2018-Jun-21 11:58N 59°25' E 005°15'0 0.0
2018-Jun-21 11:28N 59°25' E 005°15'0 0.0
2018-Jun-21 10:58N 59°25' E 005°15'0 0.0
2018-Jun-21 10:28N 59°25' E 005°15'0 0.0
2018-Jun-21 09:58N 59°25' E 005°15'0 0.0
2018-Jun-21 09:28N 59°25' E 005°15'0 0.0
2018-Jun-21 08:58N 59°25' E 005°15'0 0.0
2018-Jun-21 08:28N 59°25' E 005°15'0 0.0
2018-Jun-21 07:58N 59°25' E 005°15'0 0.0
2018-Jun-21 07:28N 59°25' E 005°15'0 0.0
2018-Jun-21 06:58N 59°25' E 005°15'0 0.0
2018-Jun-21 06:28N 59°25' E 005°15'0 0.0
2018-Jun-21 05:58N 59°25' E 005°15'0 0.0
2018-Jun-21 05:28N 59°25' E 005°15'0 0.0
2018-Jun-21 04:58N 59°25' E 005°15'0 0.0
2018-Jun-21 04:28N 59°25' E 005°15'0 0.0
2018-Jun-21 03:58N 59°25' E 005°15'0 0.0
2018-Jun-21 03:28N 59°25' E 005°15'0 0.0
2018-Jun-21 02:58N 59°25' E 005°15'0 0.0
2018-Jun-21 02:28N 59°25' E 005°15'0 0.0
2018-Jun-21 01:58N 59°25' E 005°15'0 0.0
2018-Jun-21 01:28N 59°25' E 005°15'0 0.0
2018-Jun-21 00:58N 59°25' E 005°15'0 0.0
2018-Jun-21 00:28N 59°25' E 005°15'0 0.0
2018-Jun-20 23:58N 59°25' E 005°15'0 0.0
2018-Jun-20 23:28N 59°25' E 005°15'0 0.0
2018-Jun-20 22:58N 59°25' E 005°15'0 0.0
2018-Jun-20 22:28N 59°25' E 005°15'0 0.0
2018-Jun-20 21:58N 59°25' E 005°15'0 0.0
2018-Jun-20 21:28N 59°25' E 005°15'0 0.0
2018-Jun-20 20:58N 59°25' E 005°15'0 0.4
2018-Jun-20 20:31N 59°25' E 005°15'5 8.9
2018-Jun-20 19:59N 59°28' E 005°10'917.4
2018-Jun-20 19:30N 59°36' E 005°16'1019.7
2018-Jun-20 19:00N 59°44' E 005°28'1019.5
2018-Jun-20 18:30N 59°52' E 005°40'1019.3
2018-Jun-20 18:00N 59°59' E 005°52'1019.1
2018-Jun-20 17:30N 60°06' E 006°05'817.0
2018-Jun-20 17:01N 60°14' E 006°09'1019.0
2018-Jun-20 16:30N 60°22' E 006°20'918.1
2018-Jun-20 16:01N 60°26' E 006°36'917.0
2018-Jun-20 15:30N 60°29' E 006°53'510.4
2018-Jun-20 14:59N 60°28' E 007°03'0 0.2
2018-Jun-20 14:06N 60°28' E 007°04'0 0.1
2018-Jun-20 14:00N 60°28' E 007°04'0 0.0
2018-Jun-20 12:51N 60°28' E 007°04'0 0.1
2018-Jun-20 12:30N 60°28' E 007°04'0 0.1
2018-Jun-20 12:00N 60°28' E 007°03'0 0.0
2018-Jun-20 11:06N 60°28' E 007°03'0 0.1
2018-Jun-20 10:48N 60°28' E 007°03'0 0.0
2018-Jun-20 10:12N 60°28' E 007°03'0 0.0
2018-Jun-20 09:57N 60°28' E 007°03'0 0.0
2018-Jun-20 09:21N 60°28' E 007°03'0 0.0
2018-Jun-20 08:24N 60°28' E 007°04'0 0.0
2018-Jun-20 07:57N 60°28' E 007°03'0 0.0
2018-Jun-20 06:30N 60°28' E 007°04'0 0.1
2018-Jun-20 05:57N 60°28' E 007°04'0 0.1
2018-Jun-20 05:30N 60°28' E 007°03'2 3.9
2018-Jun-20 05:00N 60°29' E 007°00'610.9
2018-Jun-20 04:26N 60°28' E 006°48'612.8
2018-Jun-20 04:00N 60°26' E 006°37'816.4
2018-Jun-20 03:30N 60°23' E 006°22'1018.5
2018-Jun-20 02:58N 60°15' E 006°11'714.2
2018-Jun-20 02:29N 60°09' E 006°05'918.5
2018-Jun-20 02:00N 60°01' E 005°56'1019.6
2018-Jun-20 01:30N 59°54' E 005°43'612.7
2018-Jun-20 01:00N 59°50' E 005°33'816.5
2018-Jun-20 00:30N 59°58' E 005°25'715.2
2018-Jun-20 00:00N 59°57' E 005°10'815.5
2018-Jun-19 23:30N 59°58' E 004°55'714.0
2018-Jun-19 23:00N 60°04' E 004°46'714.0
2018-Jun-19 22:30N 60°09' E 004°37'611.3
2018-Jun-19 22:00N 60°14' E 004°30'2411.5
2018-Jun-19 19:56N 60°37' E 004°21'613.1
2018-Jun-19 19:30N 60°41' E 004°29'612.6
2018-Jun-19 19:00N 60°45' E 004°40'815.5
2018-Jun-19 18:29N 60°39' E 004°52'817.0
2018-Jun-19 18:00N 60°31' E 004°57'816.3
2018-Jun-19 17:30N 60°24' E 005°06'611.9
2018-Jun-19 17:00N 60°23' E 005°18'0 0.4
2018-Jun-19 16:29N 60°23' E 005°19'0 0.0
2018-Jun-19 15:59N 60°23' E 005°19'0 0.0
2018-Jun-19 15:29N 60°23' E 005°19'0 0.0
2018-Jun-19 14:59N 60°23' E 005°19'0 0.0
2018-Jun-19 14:29N 60°23' E 005°19'0 0.0
2018-Jun-19 13:59N 60°23' E 005°19'0 0.0
2018-Jun-19 13:29N 60°23' E 005°19'0 0.0
2018-Jun-19 12:59N 60°23' E 005°19'0 0.0
2018-Jun-19 12:29N 60°23' E 005°19'0 0.0
2018-Jun-19 11:59N 60°23' E 005°19'0 0.0
2018-Jun-19 11:29N 60°23' E 005°19'0 0.0
2018-Jun-19 10:59N 60°23' E 005°19'0 0.0
2018-Jun-19 10:29N 60°23' E 005°19'0 0.0
2018-Jun-19 09:59N 60°23' E 005°19'0 0.0
2018-Jun-19 09:29N 60°23' E 005°19'0 0.0
2018-Jun-19 08:59N 60°23' E 005°19'0 0.0
2018-Jun-19 08:29N 60°23' E 005°19'0 0.0
2018-Jun-19 08:00N 60°23' E 005°19'0 0.0
2018-Jun-19 07:30N 60°23' E 005°19'0 0.0
2018-Jun-19 07:00N 60°23' E 005°19'0 0.0
2018-Jun-19 06:30N 60°23' E 005°19'0 0.0
2018-Jun-19 06:00N 60°23' E 005°19'0 1.0
2018-Jun-19 05:30N 60°24' E 005°18'3 6.3
2018-Jun-19 05:00N 60°23' E 005°11'510.9
2018-Jun-19 04:30N 60°26' E 005°02'611.7
2018-Jun-19 04:00N 60°31' E 004°57'611.7
2018-Jun-19 03:30N 60°37' E 004°53'712.7
2018-Jun-19 02:59N 60°43' E 004°47'611.6
2018-Jun-19 02:30N 60°44' E 004°36'611.4
2018-Jun-19 02:00N 60°40' E 004°28'612.5
2018-Jun-19 01:30N 60°34' E 004°27'15 6.1
2018-Jun-18 22:58N 60°49' E 004°17'612.2
2018-Jun-18 22:30N 60°51' E 004°28'815.1
2018-Jun-18 22:00N 60°55' E 004°41'817.0
2018-Jun-18 21:30N 61°01' E 004°52'917.9
2018-Jun-18 21:00N 61°06' E 005°08'918.8
2018-Jun-18 20:30N 61°04' E 005°27'1019.0
2018-Jun-18 20:00N 61°08' E 005°45'1019.0
2018-Jun-18 19:30N 61°08' E 006°05'919.1
2018-Jun-18 19:00N 61°06' E 006°24'1017.5
2018-Jun-18 18:26N 61°11' E 006°42'818.5
2018-Jun-18 18:00N 61°06' E 006°57'918.2
2018-Jun-18 17:30N 60°58' E 007°05'611.5
2018-Jun-18 17:00N 60°53' E 007°08'1 2.1
2018-Jun-18 16:29N 60°52' E 007°07'0 0.0
2018-Jun-18 15:59N 60°52' E 007°07'0 0.0
2018-Jun-18 15:29N 60°52' E 007°07'0 0.0
2018-Jun-18 14:59N 60°52' E 007°07'0 0.0
2018-Jun-18 14:29N 60°52' E 007°07'0 0.0
2018-Jun-18 13:59N 60°52' E 007°07'0 0.0
2018-Jun-18 13:29N 60°52' E 007°07'0 0.0
2018-Jun-18 12:59N 60°52' E 007°07'0 0.0
2018-Jun-18 12:29N 60°52' E 007°07'0 0.0
2018-Jun-18 11:59N 60°52' E 007°07'0 0.0
2018-Jun-18 11:29N 60°52' E 007°07'0 0.0
2018-Jun-18 10:59N 60°52' E 007°07'0 0.0
2018-Jun-18 10:29N 60°52' E 007°07'0 0.0
2018-Jun-18 09:59N 60°52' E 007°07'0 0.0
2018-Jun-18 09:29N 60°52' E 007°07'0 0.0
2018-Jun-18 08:59N 60°52' E 007°07'0 0.0
2018-Jun-18 08:29N 60°52' E 007°07'0 0.0
2018-Jun-18 07:59N 60°52' E 007°07'0 0.0
2018-Jun-18 07:29N 60°52' E 007°07'0 0.0
2018-Jun-18 06:59N 60°52' E 007°07'0 0.0
2018-Jun-18 06:29N 60°52' E 007°07'0 0.0
2018-Jun-18 05:59N 60°52' E 007°07'0 0.1
2018-Jun-18 05:30N 60°52' E 007°07'1 1.9
2018-Jun-18 05:00N 60°53' E 007°08'510.5
2018-Jun-18 04:30N 60°58' E 007°06'714.4
2018-Jun-18 04:00N 61°05' E 007°00'917.5
2018-Jun-18 03:29N 61°10' E 006°46'714.3
2018-Jun-18 03:00N 61°07' E 006°32'917.0
2018-Jun-18 02:30N 61°07' E 006°15'918.2
2018-Jun-18 02:00N 61°08' E 005°56'917.3
2018-Jun-18 01:30N 61°07' E 005°39'917.9
2018-Jun-18 01:00N 61°04' E 005°21'918.1
2018-Jun-18 00:30N 61°09' E 005°05'714.2
2018-Jun-18 00:00N 61°14' E 004°54'919.1
2018-Jun-17 23:30N 61°15' E 004°34'917.0
2018-Jun-17 23:00N 61°21' E 004°24'1815.7
2018-Jun-17 21:51N 61°40' E 004°22'410.5
2018-Jun-17 21:30N 61°43' E 004°25'510.7
2018-Jun-17 21:00N 61°48' E 004°27'611.0
2018-Jun-17 20:29N 61°53' E 004°31'612.5
2018-Jun-17 20:00N 61°58' E 004°40'917.2
2018-Jun-17 19:29N 61°57' E 004°59'714.9
2018-Jun-17 18:59N 61°54' E 005°13'918.2
2018-Jun-17 18:30N 61°55' E 005°32'917.7
2018-Jun-17 18:00N 61°51' E 005°49'815.9
2018-Jun-17 17:31N 61°51' E 006°05'816.3
2018-Jun-17 17:00N 61°50' E 006°23'6 0.5
2018-Jun-17 04:50N 61°52' E 006°34'411.7
2018-Jun-17 04:30N 61°49' E 006°28'814.7
2018-Jun-17 04:00N 61°51' E 006°13'816.1
2018-Jun-17 03:31N 61°52' E 005°56'714.5
2018-Jun-17 03:00N 61°54' E 005°41'917.7
2018-Jun-17 02:30N 61°55' E 005°22'815.9
2018-Jun-17 01:59N 61°55' E 005°05'613.7
2018-Jun-17 01:30N 61°59' E 004°54'611.3
2018-Jun-17 01:00N 62°01' E 004°43'4 8.9
2018-Jun-17 00:30N 62°05' E 004°37'5 9.7
2018-Jun-17 00:00N 62°09' E 004°41'5 9.6
2018-Jun-16 23:30N 62°11' E 004°50'5 9.4
2018-Jun-16 23:00N 62°16' E 004°52'5 9.3
2018-Jun-16 22:29N 62°19' E 004°60'4 8.7
2018-Jun-16 22:00N 62°23' E 005°03'5 9.9
2018-Jun-16 21:30N 62°28' E 005°09'713.8
2018-Jun-16 20:59N 62°31' E 005°22'1019.2
2018-Jun-16 20:30N 62°30' E 005°42'918.7
2018-Jun-16 20:00N 62°26' E 005°60'917.2
2018-Jun-16 19:30N 62°23' E 006°18'1019.7
2018-Jun-16 18:59N 62°27' E 006°38'817.3
2018-Jun-16 18:30N 62°24' E 006°56'817.0
2018-Jun-16 18:00N 62°16' E 007°01'917.5
2018-Jun-16 17:30N 62°08' E 006°57'611.2
2018-Jun-16 17:00N 62°07' E 007°10'1 2.7
2018-Jun-16 16:28N 62°06' E 007°12'0 0.0
2018-Jun-16 15:58N 62°06' E 007°12'0 0.0
2018-Jun-16 15:28N 62°06' E 007°12'0 0.0
2018-Jun-16 14:58N 62°06' E 007°12'0 0.0
2018-Jun-16 14:28N 62°06' E 007°12'0 0.0
2018-Jun-16 13:58N 62°06' E 007°12'0 0.0
2018-Jun-16 13:28N 62°06' E 007°12'0 0.0
2018-Jun-16 12:58N 62°06' E 007°12'0 0.0
2018-Jun-16 12:28N 62°06' E 007°12'0 0.0
2018-Jun-16 11:58N 62°06' E 007°12'0 0.0
2018-Jun-16 11:28N 62°06' E 007°12'0 0.0
2018-Jun-16 10:58N 62°06' E 007°12'0 0.0
2018-Jun-16 10:28N 62°06' E 007°12'0 0.0
2018-Jun-16 09:58N 62°06' E 007°12'0 0.0
2018-Jun-16 09:28N 62°06' E 007°12'0 0.0
2018-Jun-16 08:58N 62°06' E 007°12'0 0.0
2018-Jun-16 08:28N 62°06' E 007°12'0 0.0
2018-Jun-16 07:58N 62°06' E 007°12'0 0.1
2018-Jun-16 07:30N 62°06' E 007°12'2 4.3
2018-Jun-16 06:59N 62°07' E 007°07'612.2
2018-Jun-16 06:30N 62°06' E 006°55'0 0.3
2018-Jun-16 04:58N 62°07' E 006°55'611.9
2018-Jun-16 04:30N 62°11' E 007°02'612.2
2018-Jun-16 04:00N 62°18' E 007°01'612.2
2018-Jun-16 03:30N 62°23' E 006°55'612.2
2018-Jun-16 02:59N 62°27' E 006°45'918.4
2018-Jun-16 02:30N 62°25' E 006°27'918.3
2018-Jun-16 02:00N 62°23' E 006°08'4 8.3
2018-Jun-16 01:31N 62°27' E 006°09'1 2.1
2018-Jun-16 01:01N 62°28' E 006°09'0 0.0
2018-Jun-16 00:30N 62°28' E 006°09'0 0.0
2018-Jun-16 00:00N 62°28' E 006°09'0 0.0
2018-Jun-15 23:30N 62°28' E 006°09'0 0.0
2018-Jun-15 23:00N 62°28' E 006°09'0 0.0
2018-Jun-15 22:30N 62°28' E 006°09'0 0.0
2018-Jun-15 22:00N 62°28' E 006°09'0 0.0
2018-Jun-15 21:30N 62°28' E 006°09'0 0.0
2018-Jun-15 21:00N 62°28' E 006°09'0 0.0
2018-Jun-15 20:30N 62°28' E 006°09'0 0.0
2018-Jun-15 20:00N 62°28' E 006°09'0 0.0
2018-Jun-15 19:30N 62°28' E 006°09'0 0.0
2018-Jun-15 19:00N 62°28' E 006°09'0 0.0
2018-Jun-15 18:30N 62°28' E 006°09'0 0.0
2018-Jun-15 18:00N 62°28' E 006°09'0 0.0
2018-Jun-15 17:30N 62°28' E 006°09'0 0.0
2018-Jun-15 17:00N 62°28' E 006°09'0 0.0
2018-Jun-15 16:30N 62°28' E 006°09'0 0.0
2018-Jun-15 16:00N 62°28' E 006°09'0 0.0
2018-Jun-15 15:30N 62°28' E 006°09'0 0.0
2018-Jun-15 15:00N 62°28' E 006°09'0 0.0
2018-Jun-15 14:30N 62°28' E 006°09'0 0.0
2018-Jun-15 14:00N 62°28' E 006°09'0 0.0
2018-Jun-15 13:30N 62°28' E 006°09'0 0.0
2018-Jun-15 13:00N 62°28' E 006°09'0 0.0
2018-Jun-15 12:30N 62°28' E 006°09'0 0.0
2018-Jun-15 12:00N 62°28' E 006°09'0 0.0
2018-Jun-15 11:30N 62°28' E 006°09'0 0.0
2018-Jun-15 11:00N 62°28' E 006°09'0 0.0
2018-Jun-15 10:30N 62°28' E 006°09'0 0.0
2018-Jun-15 10:00N 62°28' E 006°09'0 0.0
2018-Jun-15 09:30N 62°28' E 006°09'0 0.0
2018-Jun-15 09:00N 62°28' E 006°09'0 0.0
2018-Jun-15 08:30N 62°28' E 006°09'0 0.0
2018-Jun-15 08:00N 62°28' E 006°09'0 0.0
2018-Jun-15 07:30N 62°28' E 006°09'0 0.0
2018-Jun-15 07:00N 62°28' E 006°09'0 0.0
2018-Jun-15 06:30N 62°28' E 006°09'0 0.0
2018-Jun-15 06:00N 62°28' E 006°09'0 0.0
2018-Jun-15 05:30N 62°28' E 006°09'0 0.0
2018-Jun-15 05:00N 62°28' E 006°09'0 0.0
2018-Jun-15 04:30N 62°28' E 006°09'0 0.0
2018-Jun-15 04:00N 62°28' E 006°09'0 0.0
2018-Jun-15 03:30N 62°28' E 006°09'0 0.0
2018-Jun-15 03:00N 62°28' E 006°09'0 0.0
2018-Jun-15 02:30N 62°28' E 006°09'0 0.0
2018-Jun-15 02:00N 62°28' E 006°09'1 2.6
2018-Jun-15 01:30N 62°27' E 006°08'4 8.3
2018-Jun-15 01:00N 62°31' E 006°09'714.1
2018-Jun-15 00:30N 62°38' E 006°07'714.9
2018-Jun-15 00:00N 62°38' E 006°23'918.1
2018-Jun-14 23:30N 62°46' E 006°33'918.3
2018-Jun-14 23:00N 62°53' E 006°44'918.0
2018-Jun-14 22:30N 63°00' E 006°57'816.6
2018-Jun-14 22:00N 63°03' E 007°14'816.7
2018-Jun-14 21:30N 63°06' E 007°31'815.0
2018-Jun-14 21:00N 63°10' E 007°45'816.5
2018-Jun-14 20:30N 63°14' E 008°01'917.8
2018-Jun-14 20:00N 63°19' E 008°17'918.6
2018-Jun-14 19:30N 63°25' E 008°35'1019.0
2018-Jun-14 19:00N 63°28' E 008°55'918.9
2018-Jun-14 18:30N 63°32' E 009°14'1019.1
2018-Jun-14 18:00N 63°37' E 009°32'713.5
2018-Jun-14 17:30N 63°38' E 009°47'919.2
2018-Jun-14 17:00N 63°29' E 009°56'918.1
2018-Jun-14 16:30N 63°29' E 010°16'4 8.1
2018-Jun-14 16:00N 63°26' E 010°24'0 0.0
2018-Jun-14 15:30N 63°26' E 010°24'0 0.0
2018-Jun-14 15:00N 63°26' E 010°24'0 0.0
2018-Jun-14 14:30N 63°26' E 010°24'0 0.0
2018-Jun-14 14:00N 63°26' E 010°24'0 0.0
2018-Jun-14 13:30N 63°26' E 010°24'0 0.0
2018-Jun-14 13:00N 63°26' E 010°24'0 0.0
2018-Jun-14 12:30N 63°26' E 010°24'0 0.0
2018-Jun-14 12:00N 63°26' E 010°24'0 0.0
2018-Jun-14 11:30N 63°26' E 010°24'0 0.0
2018-Jun-14 11:00N 63°26' E 010°24'0 0.0
2018-Jun-14 10:30N 63°26' E 010°24'0 0.0
2018-Jun-14 10:00N 63°26' E 010°24'0 0.0
2018-Jun-14 09:30N 63°26' E 010°24'0 0.0
2018-Jun-14 09:00N 63°26' E 010°24'0 0.0
2018-Jun-14 08:30N 63°26' E 010°24'1 1.2
2018-Jun-14 08:00N 63°27' E 010°23'713.6
2018-Jun-14 07:30N 63°29' E 010°08'816.5
2018-Jun-14 06:59N 63°33' E 009°51'816.8
2018-Jun-14 06:30N 63°40' E 009°42'918.4
2018-Jun-14 06:00N 63°37' E 009°23'612.0
2018-Jun-14 05:30N 63°41' E 009°14'1121.0
2018-Jun-14 05:00N 63°52' E 009°19'1121.3
2018-Jun-14 04:30N 64°02' E 009°28'1121.6
2018-Jun-14 03:59N 64°12' E 009°36'13521.1
2018-Jun-13 21:35N 66°21' E 011°09'  
Track history (hours):
 
Tides and Currents Weather Stations Pressure Air Temp Water Temp Dewpoint Dewpoint Depression Visibility Wind Speed Wind Dir Waves Ship Positions

Marella Discovery

Last reported at 2018-Jun-23 21:34 UTC. Time now 2018-Jun-24 05:08 UTC.
Position N 55°14' W 000°42'.

Length 264 m; draft 8 m.

Type: Passenger vessel. MMSI: 249639000.

Date/timePositionNaut miles runAvg speedWind from/ knotsBaromVisibWave heightAir tempDewpointWater temp
2018-Jun-23 21:34N 55°14' W 000°42'614.6
2018-Jun-23 21:11N 55°12' W 000°50'314.5
2018-Jun-23 21:00N 55°10' W 000°54'714.6
2018-Jun-23 20:30N 55°06' W 001°04'714.7
2018-Jun-23 20:01N 55°03' W 001°16'611.2
2018-Jun-23 19:30N 55°01' W 001°25'2 4.2
2018-Jun-23 19:00N 54°59' W 001°28'1 1.3
2018-Jun-23 18:29N 54°60' W 001°27'0 0.0
2018-Jun-23 17:59N 54°60' W 001°27'0 0.0
2018-Jun-23 17:29N 54°60' W 001°27'0 0.0
2018-Jun-23 16:59N 54°60' W 001°27'0 0.0
2018-Jun-23 16:29N 54°60' W 001°27'0 0.0
2018-Jun-23 15:59N 54°60' W 001°27'0 0.0
2018-Jun-23 15:29N 54°60' W 001°27'0 0.0
2018-Jun-23 14:59N 54°60' W 001°27'0 0.0
2018-Jun-23 14:29N 54°60' W 001°27'0 0.0
2018-Jun-23 13:59N 54°60' W 001°27'0 0.0
2018-Jun-23 13:29N 54°60' W 001°27'0 0.0
2018-Jun-23 12:59N 54°60' W 001°27'0 0.0
2018-Jun-23 12:29N 54°60' W 001°27'0 0.0
2018-Jun-23 11:59N 54°60' W 001°27'0 0.0
2018-Jun-23 11:29N 54°60' W 001°27'0 0.0
2018-Jun-23 10:59N 54°60' W 001°27'0 0.0
2018-Jun-23 10:29N 54°60' W 001°27'0 0.0
2018-Jun-23 09:59N 54°60' W 001°27'0 0.0
2018-Jun-23 09:29N 54°60' W 001°27'0 0.0
2018-Jun-23 08:59N 54°60' W 001°27'0 0.0
2018-Jun-23 08:29N 54°60' W 001°27'0 0.0
2018-Jun-23 07:59N 54°60' W 001°27'0 0.0
2018-Jun-23 07:26N 54°60' W 001°27'0 0.0
2018-Jun-23 06:59N 54°60' W 001°27'0 0.0
2018-Jun-23 06:29N 54°60' W 001°27'0 0.0
2018-Jun-23 05:59N 54°60' W 001°27'0 0.0
2018-Jun-23 05:26N 54°60' W 001°27'0 0.0
2018-Jun-23 04:56N 54°60' W 001°27'1 1.8
2018-Jun-23 04:30N 55°00' W 001°26'4 8.8
2018-Jun-23 04:00N 55°03' W 001°20'510.0
2018-Jun-23 03:30N 55°07' W 001°15'511.0
2018-Jun-23 03:00N 55°11' W 001°10'611.4
2018-Jun-23 02:30N 55°16' W 001°03'611.5
2018-Jun-23 02:00N 55°20' W 000°57'4211.2
2018-Jun-22 22:13N 55°50' W 000°03'411.4
2018-Jun-22 21:50N 55°51' E 000°05'23810.0
2018-Jun-21 22:03N 58°56' E 004°43'212.4
2018-Jun-21 21:53N 58°57' E 004°47'512.3
2018-Jun-21 21:29N 58°59' E 004°55'612.2
2018-Jun-21 21:00N 59°02' E 005°05'713.1
2018-Jun-21 20:31N 59°05' E 005°17'5 9.9
2018-Jun-21 20:00N 59°08' E 005°09'917.9
2018-Jun-21 19:30N 59°17' E 005°07'918.1
2018-Jun-21 19:00N 59°26' E 005°09'3 6.0
2018-Jun-21 18:28N 59°25' E 005°15'0 0.0
2018-Jun-21 17:58N 59°25' E 005°15'0 0.0
2018-Jun-21 17:28N 59°25' E 005°15'0 0.0
2018-Jun-21 16:58N 59°25' E 005°15'0 0.0
2018-Jun-21 16:28N 59°25' E 005°15'0 0.0
2018-Jun-21 15:58N 59°25' E 005°15'0 0.0
2018-Jun-21 15:28N 59°25' E 005°15'0 0.0
2018-Jun-21 14:58N 59°25' E 005°15'0 0.0
2018-Jun-21 14:28N 59°25' E 005°15'0 0.0
2018-Jun-21 13:58N 59°25' E 005°15'0 0.0
2018-Jun-21 13:28N 59°25' E 005°15'0 0.0
2018-Jun-21 12:58N 59°25' E 005°15'0 0.0
2018-Jun-21 12:28N 59°25' E 005°15'0 0.0
2018-Jun-21 11:58N 59°25' E 005°15'0 0.0
2018-Jun-21 11:28N 59°25' E 005°15'0 0.0
2018-Jun-21 10:58N 59°25' E 005°15'0 0.0
2018-Jun-21 10:28N 59°25' E 005°15'0 0.0
2018-Jun-21 09:58N 59°25' E 005°15'0 0.0
2018-Jun-21 09:28N 59°25' E 005°15'0 0.0
2018-Jun-21 08:58N 59°25' E 005°15'0 0.0
2018-Jun-21 08:28N 59°25' E 005°15'0 0.0
2018-Jun-21 07:58N 59°25' E 005°15'0 0.0
2018-Jun-21 07:28N 59°25' E 005°15'0 0.0
2018-Jun-21 06:58N 59°25' E 005°15'0 0.0
2018-Jun-21 06:28N 59°25' E 005°15'0 0.0
2018-Jun-21 05:58N 59°25' E 005°15'0 0.0
2018-Jun-21 05:28N 59°25' E 005°15'0 0.0
2018-Jun-21 04:58N 59°25' E 005°15'0 0.0
2018-Jun-21 04:28N 59°25' E 005°15'0 0.0
2018-Jun-21 03:58N 59°25' E 005°15'0 0.0
2018-Jun-21 03:28N 59°25' E 005°15'0 0.0
2018-Jun-21 02:58N 59°25' E 005°15'0 0.0
2018-Jun-21 02:28N 59°25' E 005°15'0 0.0
2018-Jun-21 01:58N 59°25' E 005°15'0 0.0
2018-Jun-21 01:28N 59°25' E 005°15'0 0.0
2018-Jun-21 00:58N 59°25' E 005°15'0 0.0
2018-Jun-21 00:28N 59°25' E 005°15'0 0.0
2018-Jun-20 23:58N 59°25' E 005°15'0 0.0
2018-Jun-20 23:28N 59°25' E 005°15'0 0.0
2018-Jun-20 22:58N 59°25' E 005°15'0 0.0
2018-Jun-20 22:28N 59°25' E 005°15'0 0.0
2018-Jun-20 21:58N 59°25' E 005°15'0 0.0
2018-Jun-20 21:28N 59°25' E 005°15'0 0.0
2018-Jun-20 20:58N 59°25' E 005°15'0 0.4
2018-Jun-20 20:31N 59°25' E 005°15'5 8.9
2018-Jun-20 19:59N 59°28' E 005°10'917.4
2018-Jun-20 19:30N 59°36' E 005°16'1019.7
2018-Jun-20 19:00N 59°44' E 005°28'1019.5
2018-Jun-20 18:30N 59°52' E 005°40'1019.3
2018-Jun-20 18:00N 59°59' E 005°52'1019.1
2018-Jun-20 17:30N 60°06' E 006°05'817.0
2018-Jun-20 17:01N 60°14' E 006°09'1019.0
2018-Jun-20 16:30N 60°22' E 006°20'918.1
2018-Jun-20 16:01N 60°26' E 006°36'917.0
2018-Jun-20 15:30N 60°29' E 006°53'510.4
2018-Jun-20 14:59N 60°28' E 007°03'0 0.2
2018-Jun-20 14:06N 60°28' E 007°04'0 0.1
2018-Jun-20 14:00N 60°28' E 007°04'0 0.0
2018-Jun-20 12:51N 60°28' E 007°04'0 0.1
2018-Jun-20 12:30N 60°28' E 007°04'0 0.1
2018-Jun-20 12:00N 60°28' E 007°03'0 0.0
2018-Jun-20 11:06N 60°28' E 007°03'0 0.1
2018-Jun-20 10:48N 60°28' E 007°03'0 0.0
2018-Jun-20 10:12N 60°28' E 007°03'0 0.0
2018-Jun-20 09:57N 60°28' E 007°03'0 0.0
2018-Jun-20 09:21N 60°28' E 007°03'0 0.0
2018-Jun-20 08:24N 60°28' E 007°04'0 0.0
2018-Jun-20 07:57N 60°28' E 007°03'0 0.0
2018-Jun-20 06:30N 60°28' E 007°04'0 0.1
2018-Jun-20 05:57N 60°28' E 007°04'0 0.1
2018-Jun-20 05:30N 60°28' E 007°03'2 3.9
2018-Jun-20 05:00N 60°29' E 007°00'610.9
2018-Jun-20 04:26N 60°28' E 006°48'612.8
2018-Jun-20 04:00N 60°26' E 006°37'816.4
2018-Jun-20 03:30N 60°23' E 006°22'1018.5
2018-Jun-20 02:58N 60°15' E 006°11'714.2
2018-Jun-20 02:29N 60°09' E 006°05'918.5
2018-Jun-20 02:00N 60°01' E 005°56'1019.6
2018-Jun-20 01:30N 59°54' E 005°43'612.7
2018-Jun-20 01:00N 59°50' E 005°33'816.5
2018-Jun-20 00:30N 59°58' E 005°25'715.2
2018-Jun-20 00:00N 59°57' E 005°10'815.5
2018-Jun-19 23:30N 59°58' E 004°55'714.0
2018-Jun-19 23:00N 60°04' E 004°46'714.0
2018-Jun-19 22:30N 60°09' E 004°37'611.3
2018-Jun-19 22:00N 60°14' E 004°30'2411.5
2018-Jun-19 19:56N 60°37' E 004°21'613.1
2018-Jun-19 19:30N 60°41' E 004°29'612.6
2018-Jun-19 19:00N 60°45' E 004°40'815.5
2018-Jun-19 18:29N 60°39' E 004°52'817.0
2018-Jun-19 18:00N 60°31' E 004°57'816.3
2018-Jun-19 17:30N 60°24' E 005°06'611.9
2018-Jun-19 17:00N 60°23' E 005°18'0 0.4
2018-Jun-19 16:29N 60°23' E 005°19'0 0.0
2018-Jun-19 15:59N 60°23' E 005°19'0 0.0
2018-Jun-19 15:29N 60°23' E 005°19'0 0.0
2018-Jun-19 14:59N 60°23' E 005°19'0 0.0
2018-Jun-19 14:29N 60°23' E 005°19'0 0.0
2018-Jun-19 13:59N 60°23' E 005°19'0 0.0
2018-Jun-19 13:29N 60°23' E 005°19'0 0.0
2018-Jun-19 12:59N 60°23' E 005°19'0 0.0
2018-Jun-19 12:29N 60°23' E 005°19'0 0.0
2018-Jun-19 11:59N 60°23' E 005°19'0 0.0
2018-Jun-19 11:29N 60°23' E 005°19'0 0.0
2018-Jun-19 10:59N 60°23' E 005°19'0 0.0
2018-Jun-19 10:29N 60°23' E 005°19'0 0.0
2018-Jun-19 09:59N 60°23' E 005°19'0 0.0
2018-Jun-19 09:29N 60°23' E 005°19'0 0.0
2018-Jun-19 08:59N 60°23' E 005°19'0 0.0
2018-Jun-19 08:29N 60°23' E 005°19'0 0.0
2018-Jun-19 08:00N 60°23' E 005°19'0 0.0
2018-Jun-19 07:30N 60°23' E 005°19'0 0.0
2018-Jun-19 07:00N 60°23' E 005°19'0 0.0
2018-Jun-19 06:30N 60°23' E 005°19'0 0.0
2018-Jun-19 06:00N 60°23' E 005°19'0 1.0
2018-Jun-19 05:30N 60°24' E 005°18'3 6.3
2018-Jun-19 05:00N 60°23' E 005°11'510.9
2018-Jun-19 04:30N 60°26' E 005°02'611.7
2018-Jun-19 04:00N 60°31' E 004°57'611.7
2018-Jun-19 03:30N 60°37' E 004°53'712.7
2018-Jun-19 02:59N 60°43' E 004°47'611.6
2018-Jun-19 02:30N 60°44' E 004°36'611.4
2018-Jun-19 02:00N 60°40' E 004°28'612.5
2018-Jun-19 01:30N 60°34' E 004°27'15 6.1
2018-Jun-18 22:58N 60°49' E 004°17'612.2
2018-Jun-18 22:30N 60°51' E 004°28'815.1
2018-Jun-18 22:00N 60°55' E 004°41'817.0
2018-Jun-18 21:30N 61°01' E 004°52'917.9
2018-Jun-18 21:00N 61°06' E 005°08'918.8
2018-Jun-18 20:30N 61°04' E 005°27'1019.0
2018-Jun-18 20:00N 61°08' E 005°45'1019.0
2018-Jun-18 19:30N 61°08' E 006°05'919.1
2018-Jun-18 19:00N 61°06' E 006°24'1017.5
2018-Jun-18 18:26N 61°11' E 006°42'818.5
2018-Jun-18 18:00N 61°06' E 006°57'918.2
2018-Jun-18 17:30N 60°58' E 007°05'611.5
2018-Jun-18 17:00N 60°53' E 007°08'1 2.1
2018-Jun-18 16:29N 60°52' E 007°07'0 0.0
2018-Jun-18 15:59N 60°52' E 007°07'0 0.0
2018-Jun-18 15:29N 60°52' E 007°07'0 0.0
2018-Jun-18 14:59N 60°52' E 007°07'0 0.0
2018-Jun-18 14:29N 60°52' E 007°07'0 0.0
2018-Jun-18 13:59N 60°52' E 007°07'0 0.0
2018-Jun-18 13:29N 60°52' E 007°07'0 0.0
2018-Jun-18 12:59N 60°52' E 007°07'0 0.0
2018-Jun-18 12:29N 60°52' E 007°07'0 0.0
2018-Jun-18 11:59N 60°52' E 007°07'0 0.0
2018-Jun-18 11:29N 60°52' E 007°07'0 0.0
2018-Jun-18 10:59N 60°52' E 007°07'0 0.0
2018-Jun-18 10:29N 60°52' E 007°07'0 0.0
2018-Jun-18 09:59N 60°52' E 007°07'0 0.0
2018-Jun-18 09:29N 60°52' E 007°07'0 0.0
2018-Jun-18 08:59N 60°52' E 007°07'0 0.0
2018-Jun-18 08:29N 60°52' E 007°07'0 0.0
2018-Jun-18 07:59N 60°52' E 007°07'0 0.0
2018-Jun-18 07:29N 60°52' E 007°07'0 0.0
2018-Jun-18 06:59N 60°52' E 007°07'0 0.0
2018-Jun-18 06:29N 60°52' E 007°07'0 0.0
2018-Jun-18 05:59N 60°52' E 007°07'0 0.1
2018-Jun-18 05:30N 60°52' E 007°07'1 1.9
2018-Jun-18 05:00N 60°53' E 007°08'510.5
2018-Jun-18 04:30N 60°58' E 007°06'714.4
2018-Jun-18 04:00N 61°05' E 007°00'917.5
2018-Jun-18 03:29N 61°10' E 006°46'714.3
2018-Jun-18 03:00N 61°07' E 006°32'917.0
2018-Jun-18 02:30N 61°07' E 006°15'918.2
2018-Jun-18 02:00N 61°08' E 005°56'917.3
2018-Jun-18 01:30N 61°07' E 005°39'917.9
2018-Jun-18 01:00N 61°04' E 005°21'918.1
2018-Jun-18 00:30N 61°09' E 005°05'714.2
2018-Jun-18 00:00N 61°14' E 004°54'919.1
2018-Jun-17 23:30N 61°15' E 004°34'917.0
2018-Jun-17 23:00N 61°21' E 004°24'1815.7
2018-Jun-17 21:51N 61°40' E 004°22'410.5
2018-Jun-17 21:30N 61°43' E 004°25'510.7
2018-Jun-17 21:00N 61°48' E 004°27'611.0
2018-Jun-17 20:29N 61°53' E 004°31'612.5
2018-Jun-17 20:00N 61°58' E 004°40'917.2
2018-Jun-17 19:29N 61°57' E 004°59'714.9
2018-Jun-17 18:59N 61°54' E 005°13'918.2
2018-Jun-17 18:30N 61°55' E 005°32'917.7
2018-Jun-17 18:00N 61°51' E 005°49'815.9
2018-Jun-17 17:31N 61°51' E 006°05'816.3
2018-Jun-17 17:00N 61°50' E 006°23'6 0.5
2018-Jun-17 04:50N 61°52' E 006°34'411.7
2018-Jun-17 04:30N 61°49' E 006°28'814.7
2018-Jun-17 04:00N 61°51' E 006°13'816.1
2018-Jun-17 03:31N 61°52' E 005°56'714.5
2018-Jun-17 03:00N 61°54' E 005°41'917.7
2018-Jun-17 02:30N 61°55' E 005°22'815.9
2018-Jun-17 01:59N 61°55' E 005°05'613.7
2018-Jun-17 01:30N 61°59' E 004°54'611.3
2018-Jun-17 01:00N 62°01' E 004°43'4 8.9
2018-Jun-17 00:30N 62°05' E 004°37'5 9.7
2018-Jun-17 00:00N 62°09' E 004°41'5 9.6
2018-Jun-16 23:30N 62°11' E 004°50'5 9.4
2018-Jun-16 23:00N 62°16' E 004°52'5 9.3
2018-Jun-16 22:29N 62°19' E 004°60'4 8.7
2018-Jun-16 22:00N 62°23' E 005°03'5 9.9
2018-Jun-16 21:30N 62°28' E 005°09'713.8
2018-Jun-16 20:59N 62°31' E 005°22'1019.2
2018-Jun-16 20:30N 62°30' E 005°42'918.7
2018-Jun-16 20:00N 62°26' E 005°60'917.2
2018-Jun-16 19:30N 62°23' E 006°18'1019.7
2018-Jun-16 18:59N 62°27' E 006°38'817.3
2018-Jun-16 18:30N 62°24' E 006°56'817.0
2018-Jun-16 18:00N 62°16' E 007°01'917.5
2018-Jun-16 17:30N 62°08' E 006°57'611.2
2018-Jun-16 17:00N 62°07' E 007°10'1 2.7
2018-Jun-16 16:28N 62°06' E 007°12'0 0.0
2018-Jun-16 15:58N 62°06' E 007°12'0 0.0
2018-Jun-16 15:28N 62°06' E 007°12'0 0.0
2018-Jun-16 14:58N 62°06' E 007°12'0 0.0
2018-Jun-16 14:28N 62°06' E 007°12'0 0.0
2018-Jun-16 13:58N 62°06' E 007°12'0 0.0
2018-Jun-16 13:28N 62°06' E 007°12'0 0.0
2018-Jun-16 12:58N 62°06' E 007°12'0 0.0
2018-Jun-16 12:28N 62°06' E 007°12'0 0.0
2018-Jun-16 11:58N 62°06' E 007°12'0 0.0
2018-Jun-16 11:28N 62°06' E 007°12'0 0.0
2018-Jun-16 10:58N 62°06' E 007°12'0 0.0
2018-Jun-16 10:28N 62°06' E 007°12'0 0.0
2018-Jun-16 09:58N 62°06' E 007°12'0 0.0
2018-Jun-16 09:28N 62°06' E 007°12'0 0.0
2018-Jun-16 08:58N 62°06' E 007°12'0 0.0
2018-Jun-16 08:28N 62°06' E 007°12'0 0.0
2018-Jun-16 07:58N 62°06' E 007°12'0 0.1
2018-Jun-16 07:30N 62°06' E 007°12'2 4.3
2018-Jun-16 06:59N 62°07' E 007°07'612.2
2018-Jun-16 06:30N 62°06' E 006°55'0 0.3
2018-Jun-16 04:58N 62°07' E 006°55'611.9
2018-Jun-16 04:30N 62°11' E 007°02'612.2
2018-Jun-16 04:00N 62°18' E 007°01'612.2
2018-Jun-16 03:30N 62°23' E 006°55'612.2
2018-Jun-16 02:59N 62°27' E 006°45'918.4
2018-Jun-16 02:30N 62°25' E 006°27'918.3
2018-Jun-16 02:00N 62°23' E 006°08'4 8.3
2018-Jun-16 01:31N 62°27' E 006°09'1 2.1
2018-Jun-16 01:01N 62°28' E 006°09'0 0.0
2018-Jun-16 00:30N 62°28' E 006°09'0 0.0
2018-Jun-16 00:00N 62°28' E 006°09'0 0.0
2018-Jun-15 23:30N 62°28' E 006°09'0 0.0
2018-Jun-15 23:00N 62°28' E 006°09'0 0.0
2018-Jun-15 22:30N 62°28' E 006°09'0 0.0
2018-Jun-15 22:00N 62°28' E 006°09'0 0.0
2018-Jun-15 21:30N 62°28' E 006°09'0 0.0
2018-Jun-15 21:00N 62°28' E 006°09'0 0.0
2018-Jun-15 20:30N 62°28' E 006°09'0 0.0
2018-Jun-15 20:00N 62°28' E 006°09'0 0.0
2018-Jun-15 19:30N 62°28' E 006°09'0 0.0
2018-Jun-15 19:00N 62°28' E 006°09'0 0.0
2018-Jun-15 18:30N 62°28' E 006°09'0 0.0
2018-Jun-15 18:00N 62°28' E 006°09'0 0.0
2018-Jun-15 17:30N 62°28' E 006°09'0 0.0
2018-Jun-15 17:00N 62°28' E 006°09'0 0.0
2018-Jun-15 16:30N 62°28' E 006°09'0 0.0
2018-Jun-15 16:00N 62°28' E 006°09'0 0.0
2018-Jun-15 15:30N 62°28' E 006°09'0 0.0
2018-Jun-15 15:00N 62°28' E 006°09'0 0.0
2018-Jun-15 14:30N 62°28' E 006°09'0 0.0
2018-Jun-15 14:00N 62°28' E 006°09'0 0.0
2018-Jun-15 13:30N 62°28' E 006°09'0 0.0
2018-Jun-15 13:00N 62°28' E 006°09'0 0.0
2018-Jun-15 12:30N 62°28' E 006°09'0 0.0
2018-Jun-15 12:00N 62°28' E 006°09'0 0.0
2018-Jun-15 11:30N 62°28' E 006°09'0 0.0
2018-Jun-15 11:00N 62°28' E 006°09'0 0.0
2018-Jun-15 10:30N 62°28' E 006°09'0 0.0
2018-Jun-15 10:00N 62°28' E 006°09'0 0.0
2018-Jun-15 09:30N 62°28' E 006°09'0 0.0
2018-Jun-15 09:00N 62°28' E 006°09'0 0.0
2018-Jun-15 08:30N 62°28' E 006°09'0 0.0
2018-Jun-15 08:00N 62°28' E 006°09'0 0.0
2018-Jun-15 07:30N 62°28' E 006°09'0 0.0
2018-Jun-15 07:00N 62°28' E 006°09'0 0.0
2018-Jun-15 06:30N 62°28' E 006°09'0 0.0
2018-Jun-15 06:00N 62°28' E 006°09'0 0.0
2018-Jun-15 05:30N 62°28' E 006°09'0 0.0
2018-Jun-15 05:00N 62°28' E 006°09'0 0.0
2018-Jun-15 04:30N 62°28' E 006°09'0 0.0
2018-Jun-15 04:00N 62°28' E 006°09'0 0.0
2018-Jun-15 03:30N 62°28' E 006°09'0 0.0
2018-Jun-15 03:00N 62°28' E 006°09'0 0.0
2018-Jun-15 02:30N 62°28' E 006°09'0 0.0
2018-Jun-15 02:00N 62°28' E 006°09'1 2.6
2018-Jun-15 01:30N 62°27' E 006°08'4 8.3
2018-Jun-15 01:00N 62°31' E 006°09'714.1
2018-Jun-15 00:30N 62°38' E 006°07'714.9
2018-Jun-15 00:00N 62°38' E 006°23'918.1
2018-Jun-14 23:30N 62°46' E 006°33'918.3
2018-Jun-14 23:00N 62°53' E 006°44'918.0
2018-Jun-14 22:30N 63°00' E 006°57'816.6
2018-Jun-14 22:00N 63°03' E 007°14'816.7
2018-Jun-14 21:30N 63°06' E 007°31'815.0
2018-Jun-14 21:00N 63°10' E 007°45'816.5
2018-Jun-14 20:30N 63°14' E 008°01'917.8
2018-Jun-14 20:00N 63°19' E 008°17'918.6
2018-Jun-14 19:30N 63°25' E 008°35'1019.0
2018-Jun-14 19:00N 63°28' E 008°55'918.9
2018-Jun-14 18:30N 63°32' E 009°14'1019.1
2018-Jun-14 18:00N 63°37' E 009°32'713.5
2018-Jun-14 17:30N 63°38' E 009°47'919.2
2018-Jun-14 17:00N 63°29' E 009°56'918.1
2018-Jun-14 16:30N 63°29' E 010°16'4 8.1
2018-Jun-14 16:00N 63°26' E 010°24'0 0.0
2018-Jun-14 15:30N 63°26' E 010°24'0 0.0
2018-Jun-14 15:00N 63°26' E 010°24'0 0.0
2018-Jun-14 14:30N 63°26' E 010°24'0 0.0
2018-Jun-14 14:00N 63°26' E 010°24'0 0.0
2018-Jun-14 13:30N 63°26' E 010°24'0 0.0
2018-Jun-14 13:00N 63°26' E 010°24'0 0.0
2018-Jun-14 12:30N 63°26' E 010°24'0 0.0
2018-Jun-14 12:00N 63°26' E 010°24'0 0.0
2018-Jun-14 11:30N 63°26' E 010°24'0 0.0
2018-Jun-14 11:00N 63°26' E 010°24'0 0.0
2018-Jun-14 10:30N 63°26' E 010°24'0 0.0
2018-Jun-14 10:00N 63°26' E 010°24'0 0.0
2018-Jun-14 09:30N 63°26' E 010°24'0 0.0
2018-Jun-14 09:00N 63°26' E 010°24'0 0.0
2018-Jun-14 08:30N 63°26' E 010°24'1 1.2
2018-Jun-14 08:00N 63°27' E 010°23'713.6
2018-Jun-14 07:30N 63°29' E 010°08'816.5
2018-Jun-14 06:59N 63°33' E 009°51'816.8
2018-Jun-14 06:30N 63°40' E 009°42'918.4
2018-Jun-14 06:00N 63°37' E 009°23'612.0
2018-Jun-14 05:30N 63°41' E 009°14'1121.0
2018-Jun-14 05:00N 63°52' E 009°19'1121.3
2018-Jun-14 04:30N 64°02' E 009°28'1121.6
2018-Jun-14 03:59N 64°12' E 009°36'13521.1
2018-Jun-13 21:35N 66°21' E 011°09'  

Dump ship's entire track history